Time;durP1;ratioP1;P1;durP2;ratioP2;P2;SDS_P1;SDS_P2;PMS_P1;PMS_P2;Temp;Humidity;BMP_temperature;BMP_pressure;BME280_temperature;BME280_humidity;BME280_pressure;Samples;Min_cycle;Max_cycle;Signal;HPM_P1;HPM_P2
2023/12/09 00:00:23;;;;;;;35.90;11.38;;;;;;;4.55;100.00;100832.03;6283143;28;20049;-71
2023/12/09 00:03:24;;;;;;;29.20;11.82;;;;;;;4.57;100.00;100827.63;6282918;28;20053;-71
2023/12/09 00:06:25;;;;;;;32.97;12.50;;;;;;;4.55;100.00;100825.06;6282828;28;20056;-71
2023/12/09 00:09:29;;;;;;;34.50;12.80;;;;;;;4.53;100.00;100836.41;6274426;28;20052;-71
2023/12/09 00:12:30;;;;;;;43.05;14.65;;;;;;;4.54;100.00;100830.28;6279413;28;20052;-71
2023/12/09 00:15:32;;;;;;;33.38;11.80;;;;;;;4.51;100.00;100833.84;6276489;22;20041;-70
2023/12/09 00:18:33;;;;;;;34.10;11.68;;;;;;;4.52;100.00;100840.75;6235506;28;20346;-71
2023/12/09 00:21:35;;;;;;;29.92;11.05;;;;;;;4.53;100.00;100846.81;6239549;28;20132;-71
2023/12/09 00:24:38;;;;;;;32.45;12.02;;;;;;;4.57;100.00;100848.44;6238298;28;20654;-70
2023/12/09 00:27:39;;;;;;;49.85;13.73;;;;;;;4.63;100.00;100850.00;6244456;28;20156;-71
2023/12/09 00:30:40;;;;;;;31.45;11.98;;;;;;;4.61;100.00;100842.25;6249584;28;20057;-71
2023/12/09 00:33:42;;;;;;;34.25;12.02;;;;;;;4.62;100.00;100850.91;6246259;28;20468;-71
2023/12/09 00:36:43;;;;;;;40.42;13.82;;;;;;;4.65;100.00;100843.03;6253263;28;20442;-70
2023/12/09 00:39:46;;;;;;;35.10;12.10;;;;;;;4.70;100.00;100839.41;6245519;28;20057;-70
2023/12/09 00:42:47;;;;;;;40.95;14.63;;;;;;;4.77;100.00;100832.28;6253905;28;20057;-70
2023/12/09 00:45:48;;;;;;;40.15;13.10;;;;;;;4.78;100.00;100844.41;6253414;28;20171;-70
2023/12/09 00:48:50;;;;;;;35.72;13.32;;;;;;;4.79;100.00;100828.72;6244608;28;20053;-71
2023/12/09 00:51:51;;;;;;;37.95;13.90;;;;;;;4.90;100.00;100831.00;6252881;28;20053;-71
2023/12/09 00:54:54;;;;;;;43.35;15.05;;;;;;;5.02;100.00;100837.63;6253345;28;20045;-71
2023/12/09 00:57:55;;;;;;;39.72;14.52;;;;;;;5.04;100.00;100833.22;6253577;28;20050;-71
2023/12/09 01:00:56;;;;;;;39.47;13.20;;;;;;;5.06;100.00;100827.09;6253559;28;20446;-70
2023/12/09 01:03:59;;;;;;;34.95;13.00;;;;;;;5.10;100.00;100825.25;6250953;28;20049;-70
2023/12/09 01:07:01;;;;;;;31.27;12.45;;;;;;;5.08;100.00;100835.69;6245581;28;20053;-70
2023/12/09 01:10:05;;;;;;;40.95;13.45;;;;;;;5.08;100.00;100824.44;6253425;28;20053;-71
2023/12/09 01:13:07;;;;;;;30.10;11.85;;;;;;;5.11;100.00;100832.16;6252853;28;20054;-71
2023/12/09 01:16:09;;;;;;;34.17;12.82;;;;;;;5.10;100.00;100830.47;6252812;28;20131;-70
2023/12/09 01:19:10;;;;;;;47.13;13.20;;;;;;;5.09;100.00;100837.44;6252905;28;20071;-70
2023/12/09 01:22:12;;;;;;;43.00;14.18;;;;;;;5.12;100.00;100827.81;6252947;28;20046;-70
2023/12/09 01:25:15;;;;;;;37.47;13.02;;;;;;;5.15;100.00;100835.53;6252652;28;20045;-70
2023/12/09 01:28:16;;;;;;;41.65;13.43;;;;;;;5.13;100.00;100839.91;6250812;28;20454;-71
2023/12/09 01:31:17;;;;;;;34.53;12.95;;;;;;;5.12;100.00;100846.88;6244326;28;20057;-71
2023/12/09 01:34:19;;;;;;;43.90;12.82;;;;;;;5.17;100.00;100849.34;6252670;28;20057;-70
2023/12/09 01:37:20;;;;;;;34.78;11.50;;;;;;;5.18;100.00;100854.53;6252291;28;20053;-70
2023/12/09 01:40:23;;;;;;;36.90;12.85;;;;;;;5.21;100.00;100851.81;6246324;28;20049;-71
2023/12/09 01:43:24;;;;;;;30.73;12.55;;;;;;;5.17;100.00;100850.19;6240259;28;20041;-70
2023/12/09 01:46:25;;;;;;;33.28;10.63;;;;;;;5.14;100.00;100857.28;6246718;28;20046;-71
2023/12/09 01:49:27;;;;;;;31.23;13.02;;;;;;;5.08;100.00;100855.69;6242678;28;20049;-71
2023/12/09 01:52:28;;;;;;;29.60;10.68;;;;;;;5.09;100.00;100860.03;6252140;28;20045;-71
2023/12/09 01:55:31;;;;;;;33.22;11.40;;;;;;;5.07;100.00;100856.59;6252042;28;20045;-70
2023/12/09 01:58:35;;;;;;;32.65;11.27;;;;;;;5.09;100.00;100857.41;6244905;28;20054;-71
2023/12/09 02:01:38;;;;;;;41.72;12.52;;;;;;;5.09;100.00;100853.06;6246192;28;20131;-70
2023/12/09 02:04:40;;;;;;;25.92;10.38;;;;;;;5.14;100.00;100839.91;6243425;28;20056;-71
2023/12/09 02:07:42;;;;;;;28.45;10.52;;;;;;;5.15;100.00;100843.34;6245789;28;20362;-69
2023/12/09 02:10:49;;;;;;;29.95;10.43;;;;;;;5.17;100.00;100834.56;6241280;28;20052;-69
2023/12/09 02:13:59;;;;;;;35.45;12.25;;;;;;;5.17;100.00;100837.19;6245261;28;20049;-71
2023/12/09 02:17:07;;;;;;;28.15;10.18;;;;;;;5.15;100.00;100833.78;6225013;28;20172;-72
2023/12/09 02:20:11;;;;;;;23.75;10.38;;;;;;;5.16;100.00;100843.28;6236694;28;20357;-69
2023/12/09 02:23:14;;;;;;;21.88;8.95;;;;;;;5.18;100.00;100841.50;6241827;28;20359;-71
2023/12/09 02:26:21;;;;;;;24.58;9.27;;;;;;;5.23;100.00;100841.38;6251720;28;20057;-71
2023/12/09 02:29:25;;;;;;;26.95;10.55;;;;;;;5.24;100.00;100845.69;6240439;28;20113;-71
2023/12/09 02:32:30;;;;;;;31.60;9.85;;;;;;;5.22;100.00;100842.25;6251449;28;20056;-69
2023/12/09 02:35:36;;;;;;;28.95;9.40;;;;;;;5.24;100.00;100838.72;6251060;28;20056;-71
2023/12/09 02:38:40;;;;;;;24.63;8.80;;;;;;;5.24;100.00;100833.50;6251131;28;20045;-71
2023/12/09 02:41:43;;;;;;;31.63;9.55;;;;;;;5.24;100.00;100832.66;6238784;28;20142;-69
2023/12/09 02:44:45;;;;;;;29.05;8.82;;;;;;;5.25;100.00;100834.34;6248740;28;20072;-71
2023/12/09 02:47:47;;;;;;;25.27;8.65;;;;;;;5.31;100.00;100834.16;6251096;28;20061;-70
2023/12/09 02:50:48;;;;;;;19.73;7.70;;;;;;;5.32;100.00;100833.28;6250883;28;20132;-71
2023/12/09 02:53:51;;;;;;;20.85;9.77;;;;;;;5.29;100.00;100830.75;6250844;28;20045;-71
2023/12/09 02:56:52;;;;;;;19.80;8.27;;;;;;;5.34;100.00;100834.94;6250313;28;20050;-71
2023/12/09 02:59:54;;;;;;;20.63;7.88;;;;;;;5.33;100.00;100833.22;6240574;28;20361;-71
2023/12/09 03:02:55;;;;;;;18.77;7.03;;;;;;;5.39;100.00;100831.34;6250177;28;20461;-69
2023/12/09 03:05:56;;;;;;;23.83;7.57;;;;;;;5.39;100.00;100826.13;6250275;28;20045;-70
2023/12/09 03:08:59;;;;;;;17.35;7.45;;;;;;;5.34;100.00;100821.91;6240075;28;20045;-71
2023/12/09 03:12:00;;;;;;;19.65;6.90;;;;;;;5.33;100.00;100809.78;6250831;28;20057;-70
2023/12/09 03:15:05;;;;;;;19.30;6.75;;;;;;;5.33;100.00;100824.56;6244133;28;20057;-69
2023/12/09 03:18:06;;;;;;;21.80;7.00;;;;;;;5.33;100.00;100820.19;6225787;28;20140;-71
2023/12/09 03:21:07;;;;;;;17.65;6.95;;;;;;;5.32;100.00;100808.06;6224268;28;20061;-70
2023/12/09 03:24:10;;;;;;;20.90;7.47;;;;;;;5.33;100.00;100808.94;6224154;28;20053;-73
2023/12/09 03:27:11;;;;;;;20.90;6.25;;;;;;;5.39;100.00;100808.72;6222699;28;20046;-73
2023/12/09 03:30:13;;;;;;;19.35;7.25;;;;;;;5.38;100.00;100801.81;6225778;28;20050;-74
2023/12/09 03:33:14;;;;;;;14.15;6.22;;;;;;;5.43;100.00;100799.06;6225039;28;20046;-74
2023/12/09 03:36:16;;;;;;;16.67;6.75;;;;;;;5.39;100.00;100795.69;6224313;28;20038;-72
2023/12/09 03:39:19;;;;;;;17.25;5.95;;;;;;;5.46;100.00;100792.00;6225320;28;20073;-69
2023/12/09 03:42:20;;;;;;;14.65;5.63;;;;;;;5.48;100.00;100784.97;6223688;28;20057;-70
2023/12/09 03:45:21;;;;;;;19.42;6.25;;;;;;;5.42;100.00;100782.59;6225088;28;20119;-69
2023/12/09 03:48:23;;;;;;;15.77;6.40;;;;;;;5.40;100.00;100773.09;6215093;28;20335;-69
2023/12/09 03:51:24;;;;;;;15.82;6.53;;;;;;;5.41;100.00;100772.22;6213346;28;20046;-69
2023/12/09 03:54:27;;;;;;;13.30;6.38;;;;;;;5.41;100.00;100777.44;6223423;28;20053;-69
2023/12/09 03:57:28;;;;;;;23.80;6.10;;;;;;;5.43;100.00;100773.00;6224908;28;20057;-69
2023/12/09 04:00:30;;;;;;;17.92;6.03;;;;;;;5.41;100.00;100765.25;6225010;28;20050;-69
2023/12/09 04:03:31;;;;;;;17.67;6.75;;;;;;;5.42;100.00;100771.31;6224871;28;20115;-69
2023/12/09 04:06:33;;;;;;;13.15;5.85;;;;;;;5.40;100.00;100767.88;6224033;28;20049;-69
2023/12/09 04:09:36;;;;;;;21.13;6.75;;;;;;;5.42;100.00;100774.75;6227210;28;20465;-68
2023/12/09 04:12:38;;;;;;;16.02;6.15;;;;;;;5.46;100.00;100773.78;6229353;28;20049;-69
2023/12/09 04:15:39;;;;;;;19.70;6.60;;;;;;;5.44;100.00;100778.16;6228443;28;20048;-71
2023/12/09 04:18:40;;;;;;;13.70;4.80;;;;;;;5.44;100.00;100766.88;6229527;28;20493;-69
2023/12/09 04:21:42;;;;;;;25.77;5.15;;;;;;;5.42;100.00;100769.56;6229101;28;20066;-69
2023/12/09 04:24:44;;;;;;;18.38;6.68;;;;;;;5.46;100.00;100762.50;6229183;28;20489;-69
2023/12/09 04:27:46;;;;;;;12.77;5.35;;;;;;;5.47;100.00;100746.78;6229049;28;20050;-68
2023/12/09 04:30:47;;;;;;;14.45;5.78;;;;;;;5.50;100.00;100756.28;6229255;28;20056;-70
2023/12/09 04:33:49;;;;;;;13.02;5.38;;;;;;;5.46;100.00;100744.25;6228739;28;20045;-70
2023/12/09 04:36:50;;;;;;;15.07;5.07;;;;;;;5.47;100.00;100758.97;6225874;28;20053;-70
2023/12/09 04:39:53;;;;;;;21.60;6.15;;;;;;;5.48;100.00;100753.72;6229148;28;20046;-70
2023/12/09 04:42:54;;;;;;;10.38;5.22;;;;;;;5.54;100.00;100758.75;6229283;28;20068;-71
2023/12/09 04:45:56;;;;;;;14.10;5.47;;;;;;;5.58;100.00;100749.03;6229218;28;20127;-70
2023/12/09 04:48:57;;;;;;;17.75;4.78;;;;;;;5.56;100.00;100758.69;6228877;28;20469;-69
2023/12/09 04:51:59;;;;;;;13.00;4.95;;;;;;;5.55;100.00;100750.00;6228790;28;20335;-70
2023/12/09 04:55:01;;;;;;;23.27;5.65;;;;;;;5.56;100.00;100746.50;6228888;28;20473;-70
2023/12/09 04:58:03;;;;;;;15.88;5.10;;;;;;;5.57;100.00;100744.75;6228918;28;20050;-70
2023/12/09 05:01:04;;;;;;;10.88;4.68;;;;;;;5.59;100.00;100746.41;6228825;28;20061;-70
2023/12/09 05:04:06;;;;;;;8.43;4.32;;;;;;;5.58;100.00;100744.69;6228946;28;20046;-70
2023/12/09 05:07:07;;;;;;;10.10;4.30;;;;;;;5.59;100.00;100738.59;6226649;28;20053;-70
2023/12/09 05:10:12;;;;;;;9.20;4.10;;;;;;;5.62;100.00;100741.97;6216924;28;20058;-69
2023/12/09 05:13:13;;;;;;;13.32;4.47;;;;;;;5.62;100.00;100732.41;6215017;28;20135;-69
2023/12/09 05:16:15;;;;;;;11.02;4.15;;;;;;;5.57;100.00;100737.78;6222883;28;20057;-69
2023/12/09 05:19:16;;;;;;;14.77;4.07;;;;;;;5.58;100.00;100738.63;6240600;28;20068;-69
2023/12/09 05:22:18;;;;;;;20.10;4.97;;;;;;;5.62;100.00;100731.56;6233675;28;20050;-70
2023/12/09 05:25:21;;;;;;;11.93;4.78;;;;;;;5.67;100.00;100742.69;6238837;28;20548;-71
2023/12/09 05:28:22;;;;;;;11.07;4.75;;;;;;;5.64;100.00;100735.81;6243815;28;20450;-70
2023/12/09 05:31:24;;;;;;;14.93;4.22;;;;;;;5.62;100.00;100731.56;6239274;28;20099;-70
2023/12/09 05:34:25;;;;;;;10.38;3.95;;;;;;;5.62;100.00;100736.78;6252318;28;20362;-71
2023/12/09 05:37:27;;;;;;;15.07;4.75;;;;;;;5.64;100.00;100753.22;6248426;28;20434;-69
2023/12/09 05:40:29;;;;;;;16.55;4.50;;;;;;;5.65;100.00;100732.31;6237023;28;20441;-70
2023/12/09 05:43:31;;;;;;;10.13;4.45;;;;;;;5.61;100.00;100735.91;6244858;28;20442;-69
2023/12/09 05:46:32;;;;;;;9.75;3.88;;;;;;;5.55;100.00;100728.31;6239236;28;20457;-69
2023/12/09 05:49:34;;;;;;;16.77;6.03;;;;;;;5.57;100.00;100735.16;6235747;28;20427;-69
2023/12/09 05:52:35;;;;;;;8.55;3.83;;;;;;;5.64;100.00;100733.22;6240115;28;20045;-68
2023/12/09 05:55:38;;;;;;;11.95;4.25;;;;;;;5.67;100.00;100740.06;6243567;28;20053;-70
2023/12/09 05:58:39;;;;;;;12.55;4.60;;;;;;;5.60;100.00;100742.88;6251993;28;20346;-69
2023/12/09 06:01:41;;;;;;;14.38;4.10;;;;;;;5.66;100.00;100741.84;6245784;28;20045;-71
2023/12/09 06:04:42;;;;;;;13.80;4.30;;;;;;;5.73;100.00;100726.84;6239148;28;20049;-69
2023/12/09 06:07:43;;;;;;;10.88;4.18;;;;;;;5.72;100.00;100726.00;6237051;28;20045;-69
2023/12/09 06:10:46;;;;;;;8.82;3.42;;;;;;;5.72;100.00;100725.13;6234177;28;20062;-69
2023/12/09 06:13:48;;;;;;;16.17;3.55;;;;;;;5.74;100.00;100729.41;6225688;28;20045;-69
2023/12/09 06:16:49;;;;;;;8.52;3.35;;;;;;;5.72;100.00;100717.31;6226412;28;20046;-69
2023/12/09 06:19:50;;;;;;;9.05;3.20;;;;;;;5.69;100.00;100715.66;6227452;28;20054;-69
2023/12/09 06:22:52;;;;;;;9.30;4.13;;;;;;;5.69;100.00;100720.88;6226722;28;20046;-69
2023/12/09 06:25:55;;;;;;;10.27;3.33;;;;;;;5.68;100.00;100719.19;6226362;28;20053;-69
2023/12/09 06:28:56;;;;;;;12.02;3.72;;;;;;;5.69;100.00;100722.63;6227147;28;20046;-69
2023/12/09 06:31:58;;;;;;;9.43;3.45;;;;;;;5.68;100.00;100726.13;6225878;28;20046;-72
2023/12/09 06:34:59;;;;;;;11.48;3.92;;;;;;;5.70;100.00;100719.13;6226119;28;20053;-73
2023/12/09 06:38:00;;;;;;;13.15;3.28;;;;;;;5.70;100.00;100724.34;6226288;28;20038;-72
2023/12/09 06:41:03;;;;;;;14.25;4.43;;;;;;;5.66;100.00;100728.78;6229454;28;20049;-72
2023/12/09 06:44:05;;;;;;;7.78;3.35;;;;;;;5.69;100.00;100726.09;6223793;28;20129;-68
2023/12/09 06:47:06;;;;;;;9.77;3.75;;;;;;;5.68;100.00;100728.72;6223590;28;20050;-69
2023/12/09 06:50:08;;;;;;;12.45;3.42;;;;;;;5.62;100.00;100719.38;6226114;28;20053;-69
2023/12/09 06:53:13;;;;;;;22.63;4.40;;;;;;;5.62;100.00;100727.19;6227284;28;20049;-68
2023/12/09 06:56:22;;;;;;;10.50;3.50;;;;;;;5.64;100.00;100721.94;6226282;28;20042;-68
2023/12/09 06:59:24;;;;;;;8.02;3.65;;;;;;;5.64;100.00;100717.59;6225849;28;20364;-71
2023/12/09 07:02:25;;;;;;;6.95;2.65;;;;;;;5.67;100.00;100717.47;6226162;28;20053;-68
2023/12/09 07:05:27;;;;;;;10.98;3.45;;;;;;;5.63;100.00;100721.06;6229396;28;20076;-68
2023/12/09 07:08:28;;;;;;;14.30;3.03;;;;;;;5.63;100.00;100707.19;6269117;22;20581;-71
2023/12/09 07:11:32;;;;;;;10.15;3.42;;;;;;;5.65;100.00;100714.06;6244098;28;20057;-71
2023/12/09 07:14:34;;;;;;;13.27;3.28;;;;;;;5.59;100.00;100709.06;6247646;28;20045;-71
2023/12/09 07:17:35;;;;;;;7.30;2.80;;;;;;;5.57;100.00;100716.91;6248302;28;20042;-71
2023/12/09 07:20:36;;;;;;;16.60;4.55;;;;;;;5.58;100.00;100708.19;6242534;28;20049;-71
2023/12/09 07:23:38;;;;;;;7.47;2.80;;;;;;;5.58;100.00;100697.75;6239890;28;20053;-72
2023/12/09 07:26:40;;;;;;;9.18;3.53;;;;;;;5.59;100.00;100699.50;6239457;28;20050;-71
2023/12/09 07:29:42;;;;;;;14.52;3.75;;;;;;;5.52;100.00;100692.75;6241012;28;20061;-72
2023/12/09 07:32:43;;;;;;;10.27;2.88;;;;;;;5.50;100.00;100684.16;6236502;28;20053;-71
2023/12/09 07:35:45;;;;;;;17.30;3.63;;;;;;;5.48;100.00;100683.34;6238588;28;20050;-71
2023/12/09 07:38:46;;;;;;;11.70;3.17;;;;;;;5.53;100.00;100665.78;6237891;28;20354;-71
2023/12/09 07:41:50;;;;;;;10.68;2.83;;;;;;;5.54;100.00;100666.63;6235321;28;20054;-71
2023/12/09 07:44:52;;;;;;;12.55;3.05;;;;;;;5.55;100.00;100657.94;6242788;28;20474;-71
2023/12/09 07:47:53;;;;;;;9.88;3.70;;;;;;;5.57;100.00;100666.53;6243493;28;20465;-71
2023/12/09 07:50:54;;;;;;;15.45;3.08;;;;;;;5.58;100.00;100656.06;6240227;28;20060;-71
2023/12/09 07:53:56;;;;;;;15.35;2.75;;;;;;;5.54;100.00;100651.88;6242582;28;20077;-71
2023/12/09 07:56:59;;;;;;;8.52;3.53;;;;;;;5.56;100.00;100654.41;6231152;28;20054;-71
2023/12/09 08:00:00;;;;;;;10.95;3.20;;;;;;;5.66;100.00;100663.63;6230432;28;20450;-70
2023/12/09 08:03:05;;;;;;;9.23;2.80;;;;;;;5.64;100.00;100659.38;6242806;28;20053;-71
2023/12/09 08:06:07;;;;;;;6.90;2.38;;;;;;;5.68;100.00;100666.16;6229539;28;20450;-71
2023/12/09 08:09:09;;;;;;;13.23;2.47;;;;;;;5.66;100.00;100666.22;6239044;28;20049;-71
2023/12/09 08:12:12;;;;;;;6.70;3.08;;;;;;;5.70;100.00;100669.59;6245975;28;20050;-71
2023/12/09 08:15:13;;;;;;;9.40;4.05;;;;;;;5.68;100.00;100672.25;6254277;28;20056;-71
2023/12/09 08:18:16;;;;;;;12.98;3.42;;;;;;;5.60;100.00;100663.84;6254088;28;20045;-73
2023/12/09 08:21:17;;;;;;;8.82;2.45;;;;;;;5.58;100.00;100661.25;6254302;28;20049;-71
2023/12/09 08:24:18;;;;;;;12.18;3.90;;;;;;;5.52;100.00;100661.50;6254002;28;20057;-71
2023/12/09 08:27:21;;;;;;;11.45;3.67;;;;;;;5.45;100.00;100670.44;6253994;28;20072;-71
2023/12/09 08:30:22;;;;;;;11.35;3.42;;;;;;;5.40;100.00;100672.31;6253907;28;20343;-71
2023/12/09 08:33:24;;;;;;;6.70;3.70;;;;;;;5.41;100.00;100673.19;6240288;28;20362;-70
2023/12/09 08:36:25;;;;;;;8.68;3.00;;;;;;;5.37;100.00;100661.16;6229180;28;20053;-70
2023/12/09 08:39:27;;;;;;;6.22;3.22;;;;;;;5.37;100.00;100661.16;6229091;28;20042;-71
2023/12/09 08:42:29;;;;;;;7.95;3.20;;;;;;;5.33;100.00;100655.19;6229243;28;20061;-71
2023/12/09 08:45:31;;;;;;;9.85;2.92;;;;;;;5.30;100.00;100650.94;6228461;28;20054;-72
2023/12/09 08:48:33;;;;;;;7.53;3.17;;;;;;;5.28;100.00;100646.69;6229128;28;20262;-71
2023/12/09 08:51:43;;;;;;;7.68;3.20;;;;;;;5.22;100.00;100637.31;6228782;28;20054;-71
2023/12/09 08:54:45;;;;;;;7.10;3.33;;;;;;;5.23;100.00;100641.63;6233585;28;20053;-71
2023/12/09 08:57:48;;;;;;;16.85;4.88;;;;;;;5.21;100.00;100648.63;6258563;28;20056;-71
2023/12/09 09:00:49;;;;;;;9.38;4.75;;;;;;;5.24;100.00;100645.06;6260379;28;20373;-74
2023/12/09 09:03:51;;;;;;;11.73;3.30;;;;;;;5.21;100.00;100634.75;6250107;28;20128;-70
2023/12/09 09:06:52;;;;;;;10.50;3.65;;;;;;;5.21;100.00;100637.34;6250903;28;20052;-72
2023/12/09 09:09:54;;;;;;;10.15;3.13;;;;;;;5.23;100.00;100635.56;6259399;28;20049;-71
2023/12/09 09:12:56;;;;;;;20.15;4.13;;;;;;;5.23;100.00;100638.16;6258522;28;20053;-71
2023/12/09 09:15:58;;;;;;;7.40;3.45;;;;;;;5.24;100.00;100639.88;6266899;28;20060;-71
2023/12/09 09:18:59;;;;;;;7.45;3.78;;;;;;;5.26;100.00;100630.22;6261643;28;20045;-71
2023/12/09 09:22:00;;;;;;;21.77;4.78;;;;;;;5.26;100.00;100625.03;6258850;28;20056;-69
2023/12/09 09:25:02;;;;;;;7.95;3.58;;;;;;;5.24;100.00;100630.28;6263566;28;20052;-69
2023/12/09 09:28:06;;;;;;;8.88;3.30;;;;;;;5.22;100.00;100623.41;6250263;28;20076;-69
2023/12/09 09:31:07;;;;;;;8.15;3.80;;;;;;;5.19;100.00;100626.16;6235919;28;20049;-72
2023/12/09 09:34:09;;;;;;;17.67;3.65;;;;;;;5.19;100.00;100623.53;6227896;28;20057;-72
2023/12/09 09:37:10;;;;;;;10.18;4.63;;;;;;;5.20;100.00;100622.63;6227388;28;20367;-70
2023/12/09 09:40:12;;;;;;;8.45;3.53;;;;;;;5.21;100.00;100619.97;6227987;28;20195;-70
2023/12/09 09:43:20;;;;;;;9.02;3.97;;;;;;;5.23;100.00;100606.91;6261303;28;20053;-70
2023/12/09 09:46:22;;;;;;;13.70;4.38;;;;;;;5.25;100.00;100602.47;6238060;28;20181;-70
2023/12/09 09:49:24;;;;;;;11.50;4.72;;;;;;;5.25;100.00;100598.13;6252295;28;20050;-70
2023/12/09 09:52:28;;;;;;;11.68;4.22;;;;;;;5.25;100.00;100594.66;6251945;28;20054;-70
2023/12/09 09:55:30;;;;;;;6.03;3.65;;;;;;;5.26;100.00;100586.78;6253790;28;20057;-70
2023/12/09 09:58:33;;;;;;;6.15;3.80;;;;;;;5.31;100.00;100589.25;6263480;28;20434;-70
2023/12/09 10:01:37;;;;;;;9.25;4.35;;;;;;;5.38;100.00;100575.09;6245186;28;20330;-70
2023/12/09 10:04:38;;;;;;;10.45;4.20;;;;;;;5.31;100.00;100571.88;6246128;28;20049;-71
2023/12/09 10:07:40;;;;;;;19.33;4.50;;;;;;;5.33;100.00;100571.81;6243570;28;20332;-70
2023/12/09 10:10:42;;;;;;;10.57;4.43;;;;;;;5.41;100.00;100567.19;6247992;28;20057;-70
2023/12/09 10:13:45;;;;;;;9.27;4.53;;;;;;;5.44;100.00;100561.00;6229122;28;20060;-70
2023/12/09 10:16:47;;;;;;;10.80;4.57;;;;;;;5.40;100.00;100549.84;6227008;28;20061;-70
2023/12/09 10:19:48;;;;;;;10.68;4.18;;;;;;;5.36;100.00;100543.06;6226792;28;20355;-70
2023/12/09 10:22:50;;;;;;;12.68;4.55;;;;;;;5.30;100.00;100538.88;6233937;28;20334;-70
2023/12/09 10:25:51;;;;;;;11.10;4.35;;;;;;;5.33;100.00;100536.19;6248607;28;20048;-71
2023/12/09 10:28:54;;;;;;;8.93;4.35;;;;;;;5.28;100.00;100525.06;6246874;28;21288;-70
2023/12/09 10:31:55;;;;;;;12.32;4.70;;;;;;;5.28;100.00;100519.03;6249684;28;20057;-70
2023/12/09 10:34:57;;;;;;;9.80;4.25;;;;;;;5.30;100.00;100509.38;6247009;28;20053;-70
2023/12/09 10:38:01;;;;;;;9.63;4.68;;;;;;;5.31;100.00;100506.75;6248255;28;20041;-71
2023/12/09 10:41:05;;;;;;;9.05;4.43;;;;;;;5.29;100.00;100502.47;6248853;28;20076;-71
2023/12/09 10:44:07;;;;;;;12.18;4.38;;;;;;;5.22;100.00;100485.34;6248388;28;20053;-70
2023/12/09 10:47:09;;;;;;;10.00;5.15;;;;;;;5.27;100.00;100481.69;6249487;28;20052;-70
2023/12/09 10:50:12;;;;;;;11.00;4.28;;;;;;;5.26;100.00;100461.75;6250719;28;20064;-71
2023/12/09 10:53:13;;;;;;;10.27;4.20;;;;;;;5.31;100.00;100449.44;6250581;28;20132;-70
2023/12/09 10:56:15;;;;;;;17.00;4.25;;;;;;;5.37;100.00;100447.50;6250618;28;20054;-71
2023/12/09 10:59:19;;;;;;;11.70;3.83;;;;;;;5.42;100.00;100437.75;6250883;28;20444;-71
2023/12/09 11:02:22;;;;;;;10.25;3.95;;;;;;;5.50;100.00;100427.91;6250569;28;20046;-72
2023/12/09 11:05:24;;;;;;;9.85;3.75;;;;;;;5.50;100.00;100422.69;6242748;28;20049;-71
2023/12/09 11:08:28;;;;;;;5.93;3.10;;;;;;;5.55;100.00;100423.34;6225592;28;20049;-71
2023/12/09 11:11:29;;;;;;;8.35;3.30;;;;;;;5.58;100.00;100407.59;6248432;28;20057;-70
2023/12/09 11:14:34;;;;;;;5.90;3.45;;;;;;;5.64;100.00;100412.56;6238318;28;20054;-70
2023/12/09 11:17:37;;;;;;;7.65;3.40;;;;;;;5.69;100.00;100407.19;6225564;28;20508;-70
2023/12/09 11:20:40;;;;;;;9.70;3.20;;;;;;;5.67;100.00;100396.81;6226466;28;20042;-70
2023/12/09 11:23:44;;;;;;;5.88;3.08;;;;;;;5.74;100.00;100392.22;6225509;28;20422;-70
2023/12/09 11:26:47;;;;;;;8.98;3.28;;;;;;;5.75;100.00;100386.94;6225930;28;20046;-72
2023/12/09 11:29:50;;;;;;;8.93;2.92;;;;;;;5.87;100.00;100369.97;6225947;28;20082;-73
2023/12/09 11:32:51;;;;;;;11.45;4.35;;;;;;;5.92;100.00;100354.16;6225879;28;20050;-72
2023/12/09 11:35:55;;;;;;;13.90;3.47;;;;;;;5.91;100.00;100342.84;6225984;28;20054;-70
2023/12/09 11:38:58;;;;;;;7.53;2.67;;;;;;;5.93;100.00;100333.22;6225729;28;20053;-70
2023/12/09 11:42:01;;;;;;;8.25;3.25;;;;;;;5.92;100.00;100315.03;6225594;28;20049;-70
2023/12/09 11:45:05;;;;;;;8.52;2.97;;;;;;;5.95;100.00;100307.94;6225704;28;20056;-71
2023/12/09 11:48:07;;;;;;;7.05;2.83;;;;;;;5.96;100.00;100299.22;6225714;28;20057;-72
2023/12/09 11:51:09;;;;;;;12.43;3.60;;;;;;;5.97;100.00;100290.47;6225826;28;20053;-72
2023/12/09 11:54:10;;;;;;;8.90;3.90;;;;;;;6.01;100.00;100291.19;6236815;28;20049;-71
2023/12/09 11:57:12;;;;;;;9.00;3.30;;;;;;;6.11;100.00;100287.28;6266375;28;20041;-74
2023/12/09 12:00:15;;;;;;;5.15;2.17;;;;;;;6.27;100.00;100287.50;6246629;28;20045;-71
2023/12/09 12:03:17;;;;;;;4.50;2.65;;;;;;;6.42;100.00;100276.38;6255970;28;20052;-71
2023/12/09 12:06:19;;;;;;;6.72;2.90;;;;;;;6.60;100.00;100266.88;6255031;28;20057;-69
2023/12/09 12:09:21;;;;;;;7.00;2.30;;;;;;;6.69;100.00;100247.34;6244052;28;20057;-69
2023/12/09 12:12:22;;;;;;;4.45;2.30;;;;;;;6.70;100.00;100234.22;6253400;28;20456;-70
2023/12/09 12:15:25;;;;;;;4.55;2.30;;;;;;;6.84;100.00;100237.03;6243184;28;20076;-70
2023/12/09 12:18:28;;;;;;;5.40;2.55;;;;;;;6.88;100.00;100236.91;6249765;28;20045;-70
2023/12/09 12:21:29;;;;;;;4.97;2.35;;;;;;;6.93;100.00;100224.47;6239364;28;20358;-70
2023/12/09 12:24:40;;;;;;;6.65;2.28;;;;;;;6.82;100.00;100209.31;6225128;28;20060;-70
2023/12/09 12:27:45;;;;;;;5.13;2.65;;;;;;;6.76;100.00;100202.59;6225023;28;20050;-70
2023/12/09 12:30:51;;;;;;;5.85;2.05;;;;;;;6.58;100.00;100204.28;6228769;28;20042;-70
2023/12/09 12:33:52;;;;;;;7.38;2.60;;;;;;;6.52;100.00;100196.75;6255908;28;20132;-70
2023/12/09 12:36:54;;;;;;;4.68;1.98;;;;;;;6.49;100.00;100189.03;6245138;28;20053;-70
2023/12/09 12:39:56;;;;;;;6.82;3.00;;;;;;;6.42;100.00;100181.56;6253913;28;20049;-68
2023/12/09 12:42:57;;;;;;;5.85;2.50;;;;;;;6.43;100.00;100178.03;6253622;28;20045;-70
2023/12/09 12:46:00;;;;;;;5.25;2.50;;;;;;;6.49;100.00;100178.59;6253172;28;20067;-69
2023/12/09 12:49:01;;;;;;;5.63;2.45;;;;;;;6.54;100.00;100163.59;6253401;28;20056;-70
2023/12/09 12:52:04;;;;;;;4.40;2.22;;;;;;;6.69;100.00;100162.03;6253607;28;20053;-69
2023/12/09 12:55:07;;;;;;;10.48;3.30;;;;;;;6.82;100.00;100151.88;6251311;28;20060;-69
2023/12/09 12:58:08;;;;;;;5.13;2.55;;;;;;;6.78;100.00;100151.16;6234797;28;20052;-69
2023/12/09 13:01:11;;;;;;;5.15;2.30;;;;;;;6.81;100.00;100156.25;6240523;28;20057;-70
2023/12/09 13:04:13;;;;;;;6.03;2.10;;;;;;;6.76;100.00;100150.38;6245744;28;20104;-69
2023/12/09 13:07:14;;;;;;;5.72;1.98;;;;;;;6.75;100.00;100148.69;6265779;23;20071;-69
2023/12/09 13:10:16;;;;;;;4.65;2.17;;;;;;;6.72;100.00;100140.13;6278521;28;20195;-71
2023/12/09 13:13:17;;;;;;;6.15;2.45;;;;;;;6.69;100.00;100129.84;6295097;28;20048;-71
2023/12/09 13:16:20;;;;;;;8.48;2.47;;;;;;;6.67;100.00;100110.78;6296263;28;20360;-71
2023/12/09 13:19:21;;;;;;;3.03;1.67;;;;;;;6.65;100.00;100107.41;6302628;28;20044;-71
2023/12/09 13:22:23;;;;;;;9.02;2.13;;;;;;;6.61;100.00;100106.72;6302386;28;20053;-71
2023/12/09 13:25:24;;;;;;;3.67;1.92;;;;;;;6.60;100.00;100103.25;6302519;28;20048;-70
2023/12/09 13:28:27;;;;;;;8.95;3.97;;;;;;;6.60;100.00;100094.59;6302233;28;20060;-71
2023/12/09 13:31:30;;;;;;;5.03;2.30;;;;;;;6.51;100.00;100074.97;6302411;28;20187;-72
2023/12/09 13:34:31;;;;;;;9.10;2.08;;;;;;;6.47;100.00;100062.16;6302446;28;20056;-72
2023/12/09 13:37:33;;;;;;;10.43;2.60;;;;;;;6.51;100.00;100048.03;6295663;28;20044;-72
2023/12/09 13:40:34;;;;;;;4.47;2.40;;;;;;;6.42;100.00;100043.25;6301708;28;20044;-72
2023/12/09 13:43:36;;;;;;;8.88;2.58;;;;;;;6.36;100.00;100026.13;6301869;28;20060;-71
2023/12/09 13:46:40;;;;;;;10.63;2.83;;;;;;;6.39;100.00;100022.50;6302042;28;20429;-71
2023/12/09 13:49:42;;;;;;;4.43;2.47;;;;;;;6.35;100.00;100009.59;6295781;28;20052;-72
2023/12/09 13:52:44;;;;;;;8.23;3.22;;;;;;;6.31;100.00;99999.38;6296107;28;20055;-71
2023/12/09 13:55:45;;;;;;;5.40;2.25;;;;;;;6.22;100.00;99986.78;6297900;28;20467;-71
2023/12/09 13:58:46;;;;;;;6.65;2.45;;;;;;;6.18;100.00;99978.28;6301461;28;20051;-70